Time;durP1;ratioP1;P1;durP2;ratioP2;P2;SDS_P1;SDS_P2;PMS_P1;PMS_P2;Temp;Humidity;BMP_temperature;BMP_pressure;BME280_temperature;BME280_humidity;BME280_pressure;Samples;Min_cycle;Max_cycle;Signal;HPM_P1;HPM_P2
2022/11/02 00:00:26;;;;;;;14.20;6.35;;;;;;;13.52;100.00;101735.50;2095907;28;20056;-73
2022/11/02 00:01:50;;;;;;;16.30;6.38;;;;;;;13.53;100.00;101732.00;2103844;28;20048;-73
2022/11/02 00:03:12;;;;;;;13.55;7.18;;;;;;;13.55;100.00;101735.59;2089355;28;20056;-73
2022/11/02 00:04:34;;;;;;;14.63;7.30;;;;;;;13.56;100.00;101731.19;2101077;28;20768;-73
2022/11/02 00:05:56;;;;;;;17.70;7.25;;;;;;;13.59;100.00;101731.22;2097715;28;20143;-73
2022/11/02 00:07:18;;;;;;;14.32;6.47;;;;;;;13.59;100.00;101722.41;2094796;28;20427;-73
2022/11/02 00:08:41;;;;;;;14.70;6.78;;;;;;;13.59;100.00;101733.00;2095108;28;20052;-74
2022/11/02 00:10:03;;;;;;;17.55;7.20;;;;;;;13.57;100.00;101732.97;2097900;28;20569;-73
2022/11/02 00:11:25;;;;;;;15.90;6.85;;;;;;;13.56;100.00;101726.78;2097572;28;20049;-73
2022/11/02 00:12:48;;;;;;;13.30;6.97;;;;;;;13.52;100.00;101724.91;2095343;28;20044;-72
2022/11/02 00:14:11;;;;;;;16.17;6.78;;;;;;;13.51;100.00;101725.78;2087071;28;20044;-73
2022/11/02 00:15:36;;;;;;;15.88;7.30;;;;;;;13.50;100.00;101731.06;2092512;28;20053;-73
2022/11/02 00:17:00;;;;;;;17.35;7.65;;;;;;;13.47;100.00;101725.69;2087348;28;20037;-72
2022/11/02 00:18:22;;;;;;;13.18;6.65;;;;;;;13.45;100.00;101720.38;2086936;28;20075;-73
2022/11/02 00:19:44;;;;;;;17.42;6.70;;;;;;;13.46;100.00;101719.47;2100897;28;20044;-73
2022/11/02 00:21:06;;;;;;;13.48;6.20;;;;;;;13.45;100.00;101724.78;2089406;28;20054;-73
2022/11/02 00:22:29;;;;;;;24.05;7.45;;;;;;;13.43;100.00;101721.19;2086975;28;20059;-73
2022/11/02 00:23:51;;;;;;;15.80;7.03;;;;;;;13.42;100.00;101720.31;2090864;28;20048;-73
2022/11/02 00:25:17;;;;;;;14.20;6.40;;;;;;;13.41;100.00;101718.50;2084852;28;20053;-73
2022/11/02 00:26:38;;;;;;;16.25;6.97;;;;;;;13.37;100.00;101716.66;2093432;28;20053;-72
2022/11/02 00:28:01;;;;;;;18.02;7.07;;;;;;;13.38;100.00;101717.56;2086600;28;20136;-73
2022/11/02 00:29:23;;;;;;;14.68;6.70;;;;;;;13.36;100.00;101714.88;2100750;28;20092;-73
2022/11/02 00:30:45;;;;;;;16.50;6.38;;;;;;;13.40;100.00;101721.13;2089305;28;20124;-73
2022/11/02 00:32:09;;;;;;;17.85;7.95;;;;;;;13.41;100.00;101722.91;2092577;28;20135;-73
2022/11/02 00:33:30;;;;;;;15.85;7.45;;;;;;;13.40;100.00;101719.38;2086873;28;20551;-73
2022/11/02 00:34:53;;;;;;;15.95;7.30;;;;;;;13.38;100.00;101726.44;2091893;28;20054;-73
2022/11/02 00:36:14;;;;;;;11.88;6.72;;;;;;;13.35;100.00;101718.38;2094847;28;20452;-74
2022/11/02 00:37:37;;;;;;;15.60;6.78;;;;;;;13.35;100.00;101726.34;2097687;28;20090;-73
2022/11/02 00:38:58;;;;;;;19.80;7.75;;;;;;;13.37;100.00;101723.72;2086717;28;20041;-72
2022/11/02 00:40:21;;;;;;;16.20;7.10;;;;;;;13.37;100.00;101726.38;2092617;28;20087;-73
2022/11/02 00:41:44;;;;;;;14.40;7.00;;;;;;;13.37;100.00;101721.09;2086436;28;20515;-72
2022/11/02 00:43:06;;;;;;;15.93;8.00;;;;;;;13.39;100.00;101720.22;2092377;28;20072;-73
2022/11/02 00:44:28;;;;;;;14.98;7.25;;;;;;;13.40;100.00;101719.38;2086680;28;20071;-73
2022/11/02 00:45:50;;;;;;;15.20;7.47;;;;;;;13.42;100.00;101728.25;2086821;28;20469;-73
2022/11/02 00:47:14;;;;;;;14.93;6.93;;;;;;;13.45;100.00;101722.13;2100225;28;20058;-72
2022/11/02 00:48:35;;;;;;;14.68;7.13;;;;;;;13.42;100.00;101716.75;2097318;28;20049;-72
2022/11/02 00:49:58;;;;;;;16.73;6.95;;;;;;;13.36;100.00;101712.22;2086695;28;20073;-73
2022/11/02 00:51:19;;;;;;;15.73;6.28;;;;;;;13.36;100.00;101712.22;2084064;28;20041;-73
2022/11/02 00:52:42;;;;;;;16.98;6.40;;;;;;;13.38;100.00;101715.81;2092385;28;20056;-72
2022/11/02 00:54:04;;;;;;;15.25;7.32;;;;;;;13.43;100.00;101722.09;2089200;28;20041;-73
2022/11/02 00:55:27;;;;;;;17.17;7.03;;;;;;;13.50;100.00;101720.44;2094603;28;20500;-72
2022/11/02 00:56:54;;;;;;;18.08;7.10;;;;;;;13.54;100.00;101717.88;2087196;28;20168;-73
2022/11/02 00:58:15;;;;;;;18.33;7.55;;;;;;;13.56;100.00;101720.56;2086760;28;20053;-72
2022/11/02 00:59:37;;;;;;;13.13;7.05;;;;;;;13.56;100.00;101721.47;2083725;28;20119;-72
2022/11/02 01:01:05;;;;;;;15.85;7.10;;;;;;;13.60;100.00;101732.13;2086943;28;20106;-73
2022/11/02 01:02:29;;;;;;;16.50;6.68;;;;;;;13.60;100.00;101724.16;2093109;28;20556;-72
2022/11/02 01:03:51;;;;;;;13.98;6.18;;;;;;;13.64;100.00;101718.97;2094868;28;20098;-73
2022/11/02 01:05:13;;;;;;;17.20;6.63;;;;;;;13.67;100.00;101718.09;2094887;28;20045;-73
2022/11/02 01:06:38;;;;;;;15.50;7.05;;;;;;;13.69;100.00;101713.72;2103142;28;20076;-72
2022/11/02 01:07:59;;;;;;;16.30;6.95;;;;;;;13.70;100.00;101715.50;2089082;28;20489;-73
2022/11/02 01:09:22;;;;;;;18.63;6.90;;;;;;;13.72;100.00;101714.66;2094521;28;20131;-72
2022/11/02 01:10:44;;;;;;;15.13;6.55;;;;;;;13.72;100.00;101706.69;2094798;28;20442;-73
2022/11/02 01:12:07;;;;;;;15.93;6.78;;;;;;;13.70;100.00;101711.09;2094817;28;20063;-72
2022/11/02 01:13:29;;;;;;;12.93;6.70;;;;;;;13.68;100.00;101709.28;2086619;28;20421;-73
2022/11/02 01:14:52;;;;;;;15.15;6.82;;;;;;;13.64;100.00;101710.09;2092070;28;20495;-72
2022/11/02 01:16:15;;;;;;;16.02;5.88;;;;;;;13.60;100.00;101701.16;2094486;28;20125;-72
2022/11/02 01:17:39;;;;;;;14.40;6.88;;;;;;;13.61;100.00;101702.97;2094730;28;20048;-72
2022/11/02 01:19:01;;;;;;;18.88;6.95;;;;;;;13.59;100.00;101696.72;2086424;28;20143;-72
2022/11/02 01:20:24;;;;;;;13.40;6.50;;;;;;;13.57;100.00;101698.47;2092138;28;20067;-72
2022/11/02 01:21:47;;;;;;;15.13;6.72;;;;;;;13.54;100.00;101699.31;2094848;28;20396;-72
2022/11/02 01:23:09;;;;;;;19.63;6.75;;;;;;;13.52;100.00;101701.03;2094295;28;20076;-71
2022/11/02 01:24:31;;;;;;;15.82;6.38;;;;;;;13.52;100.00;101693.06;2079762;28;20056;-72
2022/11/02 01:25:52;;;;;;;14.50;6.72;;;;;;;13.53;100.00;101691.31;2083552;28;20056;-72
2022/11/02 01:27:15;;;;;;;16.33;7.13;;;;;;;13.52;100.00;101695.72;2091715;28;20079;-72
2022/11/02 01:28:39;;;;;;;19.33;7.57;;;;;;;13.52;100.00;101697.50;2086283;28;20109;-71
2022/11/02 01:30:02;;;;;;;17.85;7.32;;;;;;;13.51;100.00;101699.28;2086295;28;20561;-72
2022/11/02 01:31:24;;;;;;;15.25;6.50;;;;;;;13.51;100.00;101701.03;2092151;28;20057;-72
2022/11/02 01:32:48;;;;;;;16.20;6.80;;;;;;;13.52;100.00;101697.50;2094580;28;20068;-72
2022/11/02 01:34:10;;;;;;;19.05;6.35;;;;;;;13.51;100.00;101693.06;2088978;28;20057;-72
2022/11/02 01:35:33;;;;;;;19.85;8.35;;;;;;;13.50;100.00;101699.22;2094418;28;20409;-72
2022/11/02 01:36:55;;;;;;;16.42;7.65;;;;;;;13.51;100.00;101707.22;2086460;28;20400;-72
2022/11/02 01:38:17;;;;;;;17.98;7.65;;;;;;;13.50;100.00;101697.47;2094433;28;20044;-72
2022/11/02 01:39:39;;;;;;;18.67;8.02;;;;;;;13.49;100.00;101693.03;2094279;28;20449;-72
2022/11/02 01:41:00;;;;;;;16.55;7.28;;;;;;;13.51;100.00;101701.03;2097145;28;20032;-72
2022/11/02 01:42:24;;;;;;;16.98;8.38;;;;;;;13.51;100.00;101699.28;2097253;28;20080;-71
2022/11/02 01:43:49;;;;;;;22.60;8.55;;;;;;;13.51;100.00;101696.63;2086199;28;20044;-72
2022/11/02 01:45:14;;;;;;;18.00;8.13;;;;;;;13.51;100.00;101693.06;2092492;28;20218;-72
2022/11/02 01:46:41;;;;;;;16.67;6.95;;;;;;;13.51;100.00;101693.97;2086642;28;20045;-72
2022/11/02 01:48:06;;;;;;;14.68;7.18;;;;;;;13.53;100.00;101700.16;2094419;28;20070;-72
2022/11/02 01:49:30;;;;;;;17.38;7.85;;;;;;;13.55;100.00;101693.13;2086242;28;20598;-73
2022/11/02 01:50:53;;;;;;;21.17;9.05;;;;;;;13.55;100.00;101693.13;2092561;28;20044;-73
2022/11/02 01:52:20;;;;;;;19.13;8.10;;;;;;;13.53;100.00;101697.50;2086179;28;20040;-72
2022/11/02 01:53:44;;;;;;;18.88;8.65;;;;;;;13.49;100.00;101690.38;2092714;28;20056;-72
2022/11/02 01:55:12;;;;;;;18.00;7.05;;;;;;;13.48;100.00;101691.25;2094915;28;20060;-72
2022/11/02 01:56:35;;;;;;;16.58;7.80;;;;;;;13.48;100.00;101685.03;2086722;28;20053;-72
2022/11/02 01:58:01;;;;;;;17.98;7.95;;;;;;;13.47;100.00;101689.44;2091969;28;20131;-73
2022/11/02 01:59:43;;;;;;;13.98;8.23;;;;;;;13.49;100.00;101692.13;2086638;28;20551;-72
2022/11/02 02:01:05;;;;;;;19.00;10.30;;;;;;;13.47;100.00;101692.09;2097080;28;20085;-73
2022/11/02 02:02:28;;;;;;;18.38;9.50;;;;;;;13.47;100.00;101692.09;2094363;28;20285;-72
2022/11/02 02:03:52;;;;;;;14.27;9.30;;;;;;;13.45;100.00;101690.31;2088721;28;20037;-73
2022/11/02 02:05:16;;;;;;;16.08;9.30;;;;;;;13.44;100.00;101691.16;2091790;28;20528;-72
2022/11/02 02:06:38;;;;;;;21.10;10.50;;;;;;;13.42;100.00;101683.16;2086110;28;20744;-73
2022/11/02 02:08:02;;;;;;;;;;;;;;;13.37;100.00;101690.16;2092246;28;20044;-72
2022/11/02 02:09:25;;;;;;;18.45;9.13;;;;;;;13.38;100.00;101688.41;2086479;28;20465;-72
2022/11/02 02:10:48;;;;;;;23.73;10.35;;;;;;;13.38;100.00;101689.28;2086030;28;20155;-72
2022/11/02 02:12:12;;;;;;;22.33;10.27;;;;;;;13.41;100.00;101688.44;2099993;28;20063;-72
2022/11/02 02:13:34;;;;;;;19.95;9.48;;;;;;;13.42;100.00;101692.88;2096877;28;20063;-72
2022/11/02 02:14:56;;;;;;;18.63;9.82;;;;;;;13.45;100.00;101690.31;2088530;28;20108;-72
2022/11/02 02:16:26;;;;;;;21.67;10.05;;;;;;;13.50;100.00;101700.13;2086017;28;20200;-73
2022/11/02 02:17:54;;;;;;;20.10;9.80;;;;;;;13.52;100.00;101698.38;2093528;28;20037;-72
2022/11/02 02:19:28;;;;;;;19.00;8.68;;;;;;;13.52;100.00;101693.06;2086323;28;20102;-72
2022/11/02 02:21:08;;;;;;;27.10;9.80;;;;;;;13.52;100.00;101702.81;2086362;28;20074;-72
2022/11/02 02:23:03;;;;;;;20.33;8.88;;;;;;;13.50;100.00;101697.47;2096633;28;20052;-73
2022/11/02 02:24:42;;;;;;;23.05;9.85;;;;;;;13.50;100.00;101702.78;2082365;28;20056;-72
2022/11/02 02:26:40;;;;;;;22.55;8.93;;;;;;;13.51;100.00;101703.69;2088382;28;20444;-71
2022/11/02 02:28:18;;;;;;;24.73;9.40;;;;;;;13.51;100.00;101701.91;2080061;28;20065;-71
2022/11/02 02:30:02;;;;;;;24.48;9.50;;;;;;;13.50;100.00;101696.59;2095480;28;20076;-72
2022/11/02 02:31:32;;;;;;;23.48;9.77;;;;;;;13.49;100.00;101702.75;2080140;28;20053;-71
2022/11/02 02:32:59;;;;;;;18.95;8.70;;;;;;;13.48;100.00;101696.53;2087106;28;20049;-72
2022/11/02 02:34:31;;;;;;;21.23;8.50;;;;;;;13.47;100.00;101702.72;2086862;28;20049;-72
2022/11/02 02:36:01;;;;;;;19.17;9.25;;;;;;;13.45;100.00;101706.22;2086667;28;20196;-72
2022/11/02 02:37:29;;;;;;;22.02;8.77;;;;;;;13.43;100.00;101699.97;2078640;28;20049;-72
2022/11/02 02:39:00;;;;;;;16.98;7.82;;;;;;;13.41;100.00;101696.38;2093491;28;20062;-72
2022/11/02 02:40:29;;;;;;;19.92;8.15;;;;;;;13.41;100.00;101704.34;2079966;28;20049;-73
2022/11/02 02:41:58;;;;;;;20.40;9.45;;;;;;;13.41;100.00;101699.94;2093234;28;20144;-73
2022/11/02 02:43:30;;;;;;;22.60;8.88;;;;;;;13.42;100.00;101699.09;2080205;28;20065;-72
2022/11/02 02:45:03;;;;;;;19.27;8.18;;;;;;;13.43;100.00;101692.91;2085902;28;20144;-72
2022/11/02 02:46:30;;;;;;;23.80;8.43;;;;;;;13.47;100.00;101701.81;2087150;28;20143;-72
2022/11/02 02:47:58;;;;;;;21.60;8.00;;;;;;;13.48;100.00;101701.84;2077957;28;20111;-72
2022/11/02 02:49:25;;;;;;;21.58;7.72;;;;;;;13.47;100.00;101697.41;2084760;28;20040;-72
2022/11/02 02:50:50;;;;;;;15.98;6.72;;;;;;;13.45;100.00;101700.91;2088478;28;20052;-72
2022/11/02 02:52:14;;;;;;;17.52;7.20;;;;;;;13.48;100.00;101699.19;2078052;28;20139;-72
2022/11/02 02:53:42;;;;;;;18.70;7.88;;;;;;;13.52;100.00;101702.81;2091657;28;20053;-72
2022/11/02 02:55:06;;;;;;;19.10;6.80;;;;;;;13.49;100.00;101698.34;2079772;28;20103;-73
2022/11/02 02:56:34;;;;;;;18.40;7.05;;;;;;;13.49;100.00;101702.75;2083629;28;20045;-72
2022/11/02 02:57:59;;;;;;;17.90;7.07;;;;;;;13.50;100.00;101704.53;2078295;28;20041;-71
2022/11/02 02:59:28;;;;;;;16.65;6.53;;;;;;;13.52;100.00;101702.81;2077200;28;20091;-72
2022/11/02 03:00:54;;;;;;;14.50;6.50;;;;;;;13.52;100.00;101708.97;2077018;28;20068;-72
2022/11/02 03:02:21;;;;;;;15.98;6.47;;;;;;;13.53;100.00;101707.22;2079848;28;20146;-72
2022/11/02 03:03:43;;;;;;;16.10;7.18;;;;;;;13.50;100.00;101700.13;2086206;28;20135;-72
2022/11/02 03:05:20;;;;;;;;;;;;;;;13.45;100.00;101704.47;2077889;28;20057;-71
2022/11/02 03:06:48;;;;;;;14.82;6.45;;;;;;;13.46;100.00;101703.56;2078992;28;19974;-72
2022/11/02 03:08:15;;;;;;;21.85;7.22;;;;;;;13.47;100.00;101704.47;2084382;28;20045;-72
2022/11/02 03:09:44;;;;;;;16.80;7.80;;;;;;;13.49;100.00;101702.75;2086215;28;20666;-72
2022/11/02 03:11:12;;;;;;;16.70;8.27;;;;;;;13.49;100.00;101703.63;2077984;28;20092;-71
2022/11/02 03:12:44;;;;;;;19.13;8.07;;;;;;;13.50;100.00;101709.84;2078395;28;20057;-72
2022/11/02 03:14:22;;;;;;;15.68;7.43;;;;;;;13.48;100.00;101712.47;2087021;28;20044;-72
2022/11/02 03:15:50;;;;;;;16.10;7.95;;;;;;;13.47;100.00;101702.72;2078459;28;20060;-72
2022/11/02 03:17:17;;;;;;;17.50;7.20;;;;;;;13.45;100.00;101701.81;2084460;28;20140;-72
2022/11/02 03:18:53;;;;;;;16.60;6.63;;;;;;;13.44;100.00;101710.63;2079946;28;20140;-72
2022/11/02 03:20:24;;;;;;;16.63;7.30;;;;;;;13.49;100.00;101705.41;2086289;28;20044;-73
2022/11/02 03:21:52;;;;;;;19.08;8.52;;;;;;;13.52;100.00;101706.34;2078174;28;20692;-73
2022/11/02 03:23:22;;;;;;;18.55;7.65;;;;;;;13.51;100.00;101717.84;2086235;28;20493;-72
2022/11/02 03:24:54;;;;;;;19.77;7.22;;;;;;;13.50;100.00;101712.50;2089244;28;20056;-72
2022/11/02 03:26:23;;;;;;;21.10;6.82;;;;;;;13.49;100.00;101713.34;2086496;28;20045;-72
2022/11/02 03:27:53;;;;;;;17.83;7.70;;;;;;;13.53;100.00;101710.78;2084900;28;20057;-72
2022/11/02 03:29:20;;;;;;;19.42;6.97;;;;;;;13.55;100.00;101713.47;2086637;28;20550;-72
2022/11/02 03:30:47;;;;;;;18.70;7.43;;;;;;;13.53;100.00;101718.75;2084072;28;20141;-72
2022/11/02 03:32:19;;;;;;;19.38;7.53;;;;;;;13.51;100.00;101711.63;2092014;28;20607;-72
2022/11/02 03:33:48;;;;;;;17.55;7.20;;;;;;;13.48;100.00;101715.13;2095234;28;20032;-72
2022/11/02 03:35:19;;;;;;;17.35;8.00;;;;;;;13.46;100.00;101714.19;2094600;28;20075;-72
2022/11/02 03:36:48;;;;;;;17.42;7.55;;;;;;;13.47;100.00;101709.78;2102952;28;20616;-72
2022/11/02 03:38:18;;;;;;;17.48;7.88;;;;;;;13.48;100.00;101719.53;2088109;28;20080;-72
2022/11/02 03:39:42;;;;;;;16.63;7.50;;;;;;;13.47;100.00;101715.97;2088251;28;20128;-72
2022/11/02 03:41:06;;;;;;;16.52;7.63;;;;;;;13.47;100.00;101713.31;2083409;28;20543;-72
2022/11/02 03:42:32;;;;;;;22.25;8.68;;;;;;;13.47;100.00;101717.72;2091838;28;20567;-72
2022/11/02 03:44:00;;;;;;;20.05;8.25;;;;;;;13.46;100.00;101715.94;2085660;28;20385;-72
2022/11/02 03:45:25;;;;;;;17.80;7.22;;;;;;;13.45;100.00;101723.03;2092668;28;20143;-72
2022/11/02 03:46:54;;;;;;;18.10;7.75;;;;;;;13.44;100.00;101715.03;2085994;28;20045;-72
2022/11/02 03:48:19;;;;;;;18.83;7.05;;;;;;;13.43;100.00;101724.75;2084559;28;20049;-72
2022/11/02 03:49:42;;;;;;;16.13;7.25;;;;;;;13.40;100.00;101716.72;2083457;28;20118;-72
2022/11/02 03:51:09;;;;;;;18.50;7.90;;;;;;;13.40;100.00;101724.66;2082778;28;20052;-73
2022/11/02 03:52:35;;;;;;;22.45;6.90;;;;;;;13.39;100.00;101719.38;2084358;28;20060;-72
2022/11/02 03:54:02;;;;;;;17.20;7.55;;;;;;;13.41;100.00;101721.16;2083833;28;20033;-72
2022/11/02 03:55:31;;;;;;;18.45;7.63;;;;;;;13.43;100.00;101721.19;2094550;28;20057;-73
2022/11/02 03:56:58;;;;;;;15.30;6.82;;;;;;;13.44;100.00;101717.69;2086339;28;20069;-72
2022/11/02 03:58:21;;;;;;;13.32;6.78;;;;;;;13.45;100.00;101719.47;2094058;28;20055;-73
2022/11/02 03:59:43;;;;;;;16.90;7.45;;;;;;;13.44;100.00;101723.00;2087810;28;20068;-72
2022/11/02 04:01:08;;;;;;;23.52;7.38;;;;;;;13.43;100.00;101719.44;2088195;28;20045;-72
2022/11/02 04:02:35;;;;;;;16.77;7.28;;;;;;;13.48;100.00;101723.06;2085977;28;20640;-73
2022/11/02 04:03:58;;;;;;;17.63;7.70;;;;;;;13.51;100.00;101717.84;2083783;28;20398;-72
2022/11/02 04:05:28;;;;;;;21.25;7.97;;;;;;;13.52;100.00;101724.03;2074507;28;20128;-72
2022/11/02 04:06:50;;;;;;;19.58;7.55;;;;;;;13.49;100.00;101727.53;2093241;28;20143;-73
2022/11/02 04:08:21;;;;;;;21.08;7.57;;;;;;;13.51;100.00;101728.44;2085594;28;20037;-72
2022/11/02 04:09:57;;;;;;;22.58;7.30;;;;;;;13.50;100.00;101724.00;2096226;28;20532;-72
2022/11/02 04:14:41;;;;;;;22.52;9.98;;;;;;;13.66;100.00;101726.91;2089121;28;20481;-72
2022/11/02 04:16:10;;;;;;;21.98;9.88;;;;;;;13.68;100.00;101727.84;2093903;28;20060;-72
2022/11/02 04:19:29;;;;;;;20.10;8.90;;;;;;;13.70;100.00;101728.78;2088848;28;20460;-71
2022/11/02 04:21:02;;;;;;;26.17;10.68;;;;;;;13.76;100.00;101737.75;2089619;28;20068;-74
2022/11/02 04:25:53;;;;;;;25.92;12.02;;;;;;;13.97;100.00;101731.94;2096866;28;20135;-72
2022/11/02 04:27:30;;;;;;;23.35;12.40;;;;;;;14.04;100.00;101740.91;2089214;28;20084;-73
2022/11/02 04:28:53;;;;;;;23.70;11.30;;;;;;;14.11;100.00;101742.78;2084227;28;20056;-73
2022/11/02 04:30:17;;;;;;;21.45;10.90;;;;;;;14.14;100.00;101749.03;2084467;28;20147;-72
2022/11/02 04:31:39;;;;;;;26.27;10.80;;;;;;;14.18;100.00;101745.56;2084582;28;20052;-73
2022/11/02 04:34:48;;;;;;;21.08;9.80;;;;;;;14.24;100.00;101743.00;2097609;28;20049;-73
2022/11/02 04:36:11;;;;;;;16.30;8.48;;;;;;;14.30;100.00;101744.88;2086840;28;20056;-73
2022/11/02 04:39:17;;;;;;;20.98;8.07;;;;;;;14.53;100.00;101745.25;2089182;28;20049;-72
2022/11/02 04:40:40;;;;;;;19.00;9.25;;;;;;;14.61;100.00;101743.63;2094965;28;20049;-72
2022/11/02 04:42:01;;;;;;;21.85;10.88;;;;;;;14.63;100.00;101737.47;2089311;28;20096;-73
2022/11/02 04:43:29;;;;;;;20.20;10.88;;;;;;;14.63;100.00;101742.78;2085192;28;20067;-72
2022/11/02 04:44:52;;;;;;;25.95;9.73;;;;;;;14.65;100.00;101740.13;2086930;28;20147;-73
2022/11/02 04:46:17;;;;;;;21.98;10.68;;;;;;;14.63;100.00;101747.19;2087264;28;20037;-72
2022/11/02 04:47:40;;;;;;;14.90;8.88;;;;;;;14.61;100.00;101751.59;2086508;28;20099;-73
2022/11/02 04:49:05;;;;;;;20.33;10.65;;;;;;;14.62;100.00;101753.38;2086555;28;20137;-73
2022/11/02 04:50:28;;;;;;;18.35;8.27;;;;;;;14.61;100.00;101748.94;2087191;28;20389;-72
2022/11/02 04:51:51;;;;;;;19.48;9.73;;;;;;;14.62;100.00;101743.66;2086601;28;20037;-73
2022/11/02 04:53:13;;;;;;;18.80;10.57;;;;;;;14.62;100.00;101748.06;2086912;28;20157;-73
2022/11/02 04:54:37;;;;;;;23.98;9.90;;;;;;;14.61;100.00;101746.28;2092191;28;20553;-72
2022/11/02 04:56:00;;;;;;;18.98;9.05;;;;;;;14.55;100.00;101741.78;2095160;28;20043;-73
2022/11/02 04:57:23;;;;;;;18.00;9.35;;;;;;;14.50;100.00;101731.94;2086539;28;20071;-73
2022/11/02 04:58:48;;;;;;;18.98;8.13;;;;;;;14.44;100.00;101742.47;2092211;28;20055;-73
2022/11/02 05:00:12;;;;;;;20.10;8.07;;;;;;;14.41;100.00;101747.72;2089041;28;20083;-73
2022/11/02 05:01:35;;;;;;;17.95;8.63;;;;;;;14.47;100.00;101747.81;2092490;28;20052;-73
2022/11/02 05:02:57;;;;;;;18.77;8.63;;;;;;;14.52;100.00;101748.78;2086717;28;20378;-73
2022/11/02 05:04:23;;;;;;;22.08;8.10;;;;;;;14.55;100.00;101744.44;2086422;28;20615;-73
2022/11/02 05:05:44;;;;;;;18.60;7.95;;;;;;;14.58;100.00;101754.19;2084295;28;20048;-73
2022/11/02 05:07:07;;;;;;;20.90;8.52;;;;;;;14.59;100.00;101746.25;2086525;28;20520;-73
2022/11/02 05:08:32;;;;;;;19.30;7.72;;;;;;;14.61;100.00;101752.50;2084023;28;20056;-73
2022/11/02 05:09:55;;;;;;;19.17;8.15;;;;;;;14.63;100.00;101758.72;2084354;28;20041;-73
2022/11/02 05:11:18;;;;;;;18.00;7.70;;;;;;;14.63;100.00;101753.41;2094845;28;20099;-73
2022/11/02 05:12:40;;;;;;;26.77;8.32;;;;;;;14.64;100.00;101763.16;2086565;28;20520;-73
2022/11/02 05:14:03;;;;;;;22.90;8.30;;;;;;;14.65;100.00;101754.31;2083702;28;20068;-73
2022/11/02 05:15:24;;;;;;;16.13;8.35;;;;;;;14.65;100.00;101764.94;2092030;28;20448;-72
2022/11/02 05:16:46;;;;;;;19.05;7.85;;;;;;;14.65;100.00;101761.38;2094520;28;20041;-72
2022/11/02 05:18:10;;;;;;;17.73;7.55;;;;;;;14.69;100.00;101761.47;2089014;28;20480;-73
2022/11/02 05:19:34;;;;;;;19.15;7.60;;;;;;;14.73;100.00;101762.41;2100337;28;20075;-73
2022/11/02 05:20:59;;;;;;;14.68;7.28;;;;;;;14.75;100.00;101753.59;2089070;28;20500;-73
2022/11/02 05:22:23;;;;;;;14.82;7.63;;;;;;;14.77;100.00;101757.13;2088194;28;20432;-72
2022/11/02 05:23:45;;;;;;;16.67;8.00;;;;;;;14.74;100.00;101766.84;2085981;28;20647;-73
2022/11/02 05:25:07;;;;;;;17.77;8.52;;;;;;;14.73;100.00;101759.75;2078289;28;20061;-73
2022/11/02 05:26:29;;;;;;;;;;;;;;;14.67;100.00;101765.88;2078698;28;20057;-72
2022/11/02 05:27:52;;;;;;;18.63;8.18;;;;;;;14.67;100.00;101770.28;2078057;28;19928;-73
2022/11/02 05:29:15;;;;;;;15.05;7.85;;;;;;;14.65;100.00;101770.25;2075367;28;20051;-73
2022/11/02 05:30:37;;;;;;;20.52;8.15;;;;;;;14.65;100.00;101769.34;2075746;28;20042;-73
2022/11/02 05:32:00;;;;;;;18.10;7.53;;;;;;;14.68;100.00;101769.41;2078121;28;20041;-73
2022/11/02 05:33:23;;;;;;;17.85;8.10;;;;;;;14.73;100.00;101775.69;2086233;28;20056;-72
2022/11/02 05:34:46;;;;;;;16.55;7.55;;;;;;;14.77;100.00;101774.84;2078225;28;20052;-73
2022/11/02 05:36:10;;;;;;;17.55;7.68;;;;;;;14.79;100.00;101778.44;2077930;28;20208;-73
2022/11/02 05:37:35;;;;;;;19.70;8.70;;;;;;;14.84;100.00;101783.81;2076243;28;20118;-73
2022/11/02 05:38:58;;;;;;;17.58;9.65;;;;;;;14.89;100.00;101776.81;2076288;28;20045;-73
2022/11/02 05:40:20;;;;;;;15.98;8.07;;;;;;;14.94;100.00;101783.09;2075563;28;20091;-73
2022/11/02 05:41:43;;;;;;;17.08;8.02;;;;;;;14.97;100.00;101789.31;2086101;28;20072;-73
2022/11/02 05:43:06;;;;;;;17.08;9.00;;;;;;;14.99;100.00;101784.94;2080357;28;20540;-73
2022/11/02 05:44:29;;;;;;;15.90;8.27;;;;;;;15.01;100.00;101785.84;2078046;28;20473;-72
2022/11/02 05:45:53;;;;;;;17.25;8.93;;;;;;;15.03;100.00;101789.41;2086192;28;20119;-73
2022/11/02 05:47:15;;;;;;;20.42;12.20;;;;;;;15.06;100.00;101793.88;2086378;28;20060;-72
2022/11/02 05:48:37;;;;;;;18.98;10.50;;;;;;;15.16;100.00;101796.69;2077998;28;20080;-72
2022/11/02 05:50:01;;;;;;;17.30;10.35;;;;;;;15.23;100.00;101802.13;2077367;28;20053;-73
2022/11/02 05:51:22;;;;;;;18.42;9.95;;;;;;;15.28;100.00;101797.75;2083971;28;20068;-73
2022/11/02 05:52:44;;;;;;;25.55;14.00;;;;;;;15.34;100.00;101800.47;2086116;28;20072;-73
2022/11/02 05:54:07;;;;;;;28.80;17.17;;;;;;;15.41;100.00;101813.00;2086110;28;20036;-73
2022/11/02 05:55:28;;;;;;;25.67;15.85;;;;;;;15.47;100.00;101805.97;2088930;28;20055;-73
2022/11/02 05:56:50;;;;;;;26.58;16.70;;;;;;;15.51;100.00;101809.56;2077578;28;20147;-72
2022/11/02 05:58:12;;;;;;;25.48;13.43;;;;;;;15.55;100.00;101811.44;2091582;28;20044;-72
2022/11/02 05:59:34;;;;;;;23.67;14.45;;;;;;;15.58;100.00;101814.13;2088974;28;20683;-72
2022/11/02 06:00:58;;;;;;;22.40;13.25;;;;;;;15.64;100.00;101811.53;2086054;28;20064;-73
2022/11/02 06:02:21;;;;;;;21.50;9.50;;;;;;;15.75;100.00;101819.66;2086444;28;20032;-73
2022/11/02 06:03:43;;;;;;;17.45;8.73;;;;;;;15.86;100.00;101818.88;2085933;28;20048;-72
2022/11/02 06:05:07;;;;;;;16.33;8.40;;;;;;;15.95;100.00;101818.97;2077673;28;20083;-73
2022/11/02 06:06:30;;;;;;;16.25;10.23;;;;;;;16.04;100.00;101834.16;2075717;28;20147;-73
2022/11/02 06:07:51;;;;;;;20.92;9.57;;;;;;;16.15;100.00;101826.25;2075485;28;20041;-73
2022/11/02 06:09:13;;;;;;;17.63;10.05;;;;;;;16.28;100.00;101831.72;2083052;28;20057;-72
2022/11/02 06:10:35;;;;;;;17.88;9.05;;;;;;;16.43;100.00;101823.00;2086291;28;20045;-74
2022/11/02 06:11:57;;;;;;;16.80;9.07;;;;;;;16.53;100.00;101827.53;2085969;28;20561;-74
2022/11/02 06:13:19;;;;;;;18.65;10.20;;;;;;;16.66;100.00;101832.13;2080248;28;20098;-73
2022/11/02 06:14:41;;;;;;;21.05;10.38;;;;;;;16.79;100.00;101827.78;2086183;28;20040;-74
2022/11/02 06:16:06;;;;;;;21.90;13.48;;;;;;;16.92;100.00;101832.31;2088642;28;20431;-74
2022/11/02 06:17:28;;;;;;;25.70;8.93;;;;;;;16.98;100.00;101824.34;2086165;28;20556;-74
2022/11/02 06:18:50;;;;;;;18.65;8.50;;;;;;;17.00;100.00;101819.88;2085625;28;20141;-74
2022/11/02 06:20:15;;;;;;;17.52;7.78;;;;;;;17.00;100.00;101827.88;2086027;28;20559;-73
2022/11/02 06:21:37;;;;;;;17.77;9.68;;;;;;;16.97;100.00;101821.66;2086095;28;20082;-74
2022/11/02 06:22:59;;;;;;;19.10;8.60;;;;;;;16.94;100.00;101817.19;2077980;28;20058;-74
2022/11/02 06:24:22;;;;;;;17.77;7.93;;;;;;;16.98;100.00;101818.13;2096607;28;20446;-74
2022/11/02 06:25:49;;;;;;;13.50;6.40;;;;;;;17.18;100.00;101818.22;2079712;28;20038;-73
2022/11/02 06:27:11;;;;;;;18.60;6.93;;;;;;;17.37;100.00;101825.44;2084935;28;20641;-73
2022/11/02 06:28:33;;;;;;;19.27;7.55;;;;;;;17.50;100.00;101820.16;2077585;28;20080;-74
2022/11/02 06:29:55;;;;;;;13.07;5.50;;;;;;;17.56;100.00;101829.97;2085773;28;20053;-74
2022/11/02 06:31:18;;;;;;;14.27;5.90;;;;;;;17.64;100.00;101816.69;2080416;28;20143;-74
2022/11/02 06:32:39;;;;;;;12.35;4.40;;;;;;;17.76;100.00;101816.72;2085764;28;20544;-74
2022/11/02 06:34:01;;;;;;;11.27;5.05;;;;;;;17.82;100.00;101814.06;2079788;28;20144;-75
2022/11/02 06:35:25;;;;;;;14.43;6.80;;;;;;;17.85;100.00;101814.09;2085986;28;20045;-74
2022/11/02 06:36:48;;;;;;;12.95;6.10;;;;;;;17.97;100.00;101806.09;2094322;28;20048;-74
2022/11/02 06:38:09;;;;;;;11.75;5.88;;;;;;;18.19;100.00;101817.69;2088365;28;20053;-75